createdAt,value
2023-01-09T00:00:20.197Z,22
2023-01-09T00:01:22.881Z,22
2023-01-09T00:02:25.540Z,22
2023-01-09T00:03:27.985Z,22
2023-01-09T00:04:30.559Z,22
2023-01-09T00:05:33.122Z,22
2023-01-09T00:06:35.637Z,22
2023-01-09T00:07:38.167Z,22
2023-01-09T00:08:40.407Z,22
2023-01-09T00:09:42.960Z,22
2023-01-09T00:10:45.457Z,22
2023-01-09T00:11:47.685Z,22
2023-01-09T00:12:50.310Z,22.1
2023-01-09T00:13:52.571Z,22.1
2023-01-09T00:14:54.835Z,22.1
2023-01-09T00:15:56.567Z,22.1
2023-01-09T00:16:58.952Z,22.1
2023-01-09T00:18:01.663Z,22.1
2023-01-09T00:19:04.216Z,22.1
2023-01-09T00:20:06.522Z,22.1
2023-01-09T00:21:08.575Z,22.1
2023-01-09T00:22:10.848Z,22.1
2023-01-09T00:23:13.372Z,22.1
2023-01-09T00:24:15.890Z,22.1
2023-01-09T00:25:18.134Z,22.1
2023-01-09T00:26:20.667Z,22.1
2023-01-09T00:27:23.153Z,22.1
2023-01-09T00:28:25.375Z,22.1
2023-01-09T00:29:27.911Z,22.1
2023-01-09T00:30:30.230Z,22.1
2023-01-09T00:31:32.363Z,22.1
2023-01-09T00:32:34.884Z,22.1
2023-01-09T00:33:37.140Z,22.1
2023-01-09T00:34:39.682Z,22.1
2023-01-09T00:35:42.011Z,22.1
2023-01-09T00:36:44.298Z,22.1
2023-01-09T00:37:46.787Z,22.2
2023-01-09T00:38:49.331Z,22.2
2023-01-09T00:39:51.568Z,22.2
2023-01-09T00:40:54.088Z,22.2
2023-01-09T00:41:56.339Z,22.2
2023-01-09T00:42:58.301Z,22.2
2023-01-09T00:44:00.899Z,22.2
2023-01-09T00:45:06.862Z,22.2
2023-01-09T00:46:09.068Z,22.2
2023-01-09T00:47:11.746Z,22.2
2023-01-09T00:48:14.267Z,22.2
2023-01-09T00:49:16.542Z,22.2
2023-01-09T00:50:19.081Z,22.2
2023-01-09T00:51:21.400Z,22.2
2023-01-09T00:52:23.975Z,22.2
2023-01-09T00:53:26.211Z,22.2
2023-01-09T00:54:28.482Z,22.2
2023-01-09T00:55:31.026Z,22.2
2023-01-09T00:56:33.517Z,22.2
2023-01-09T00:57:35.479Z,22.2
2023-01-09T00:58:37.975Z,22.2
2023-01-09T00:59:40.499Z,22.2
2023-01-09T01:00:42.999Z,22.2
2023-01-09T01:01:46.130Z,22.2
2023-01-09T01:02:49.092Z,22.3
2023-01-09T01:03:51.869Z,22.3
2023-01-09T01:04:54.372Z,22.3
2023-01-09T01:05:56.656Z,22.3
2023-01-09T01:06:59.202Z,22.3
2023-01-09T01:08:01.732Z,22.3
2023-01-09T01:09:03.965Z,22.3
2023-01-09T01:10:06.474Z,22.3
2023-01-09T01:11:08.969Z,22.3
2023-01-09T01:12:11.183Z,22.3
2023-01-09T01:13:13.704Z,22.3
2023-01-09T01:14:16.194Z,22.3
2023-01-09T01:15:18.434Z,22.3
2023-01-09T01:16:20.967Z,22.3
2023-01-09T01:17:23.350Z,22.3
2023-01-09T01:18:25.891Z,22.3
2023-01-09T01:19:28.412Z,22.3
2023-01-09T01:20:30.938Z,22.3
2023-01-09T01:21:33.455Z,22.3
2023-01-09T01:22:36.023Z,22.3
2023-01-09T01:23:38.283Z,22.3
2023-01-09T01:24:40.833Z,22.3
2023-01-09T01:25:42.848Z,22.3
2023-01-09T01:26:45.347Z,22.3
2023-01-09T01:27:47.883Z,22.3
2023-01-09T01:28:50.398Z,22.3
2023-01-09T01:29:52.915Z,22.4
2023-01-09T01:30:54.679Z,22.4
2023-01-09T01:31:57.354Z,22.4
2023-01-09T01:32:59.861Z,22.4
2023-01-09T01:34:02.438Z,22.4
2023-01-09T01:35:04.956Z,22.4
2023-01-09T01:36:07.498Z,22.4
2023-01-09T01:37:09.791Z,22.4
2023-01-09T01:38:12.370Z,22.4
2023-01-09T01:39:14.941Z,22.3
2023-01-09T01:40:17.448Z,22.3
2023-01-09T01:41:19.379Z,22.3
2023-01-09T01:42:21.341Z,22.3
2023-01-09T01:43:23.597Z,22.3
2023-01-09T01:44:26.101Z,22.3
2023-01-09T01:45:28.328Z,22.3
2023-01-09T01:46:30.640Z,22.3
2023-01-09T01:47:33.196Z,22.3
2023-01-09T01:48:35.421Z,22.3
2023-01-09T01:49:37.938Z,22.3
2023-01-09T01:50:40.159Z,22.4
2023-01-09T01:51:42.683Z,22.4
2023-01-09T01:52:45.072Z,22.4
2023-01-09T01:53:47.615Z,22.4
2023-01-09T01:54:49.882Z,22.4
2023-01-09T01:55:52.421Z,22.4
2023-01-09T01:56:54.913Z,22.4
2023-01-09T01:57:56.851Z,22.4
2023-01-09T01:58:59.380Z,22.4
2023-01-09T02:00:01.360Z,22.4
2023-01-09T02:01:04.290Z,22.4
2023-01-09T02:02:07.746Z,22.4
2023-01-09T02:03:10.963Z,22.4
2023-01-09T02:04:13.475Z,22.4
2023-01-09T02:05:15.473Z,22.4
2023-01-09T02:06:18.000Z,22.4
2023-01-09T02:07:20.535Z,22.4
2023-01-09T02:08:23.061Z,22.4
2023-01-09T02:09:25.436Z,22.4
2023-01-09T02:10:28.038Z,22.4
2023-01-09T02:11:30.535Z,22.4
2023-01-09T02:12:32.502Z,22.4
2023-01-09T02:13:34.999Z,22.4
2023-01-09T02:14:37.254Z,22.4
2023-01-09T02:15:39.792Z,22.4
2023-01-09T02:16:42.368Z,22.4
2023-01-09T02:17:44.881Z,22.4
2023-01-09T02:18:47.383Z,22.4
2023-01-09T02:19:49.900Z,22.4
2023-01-09T02:20:52.151Z,22.4
2023-01-09T02:21:54.371Z,22.5
2023-01-09T02:22:56.916Z,22.5
2023-01-09T02:23:59.469Z,22.5
2023-01-09T02:25:02.027Z,22.5
2023-01-09T02:26:04.338Z,22.5
2023-01-09T02:27:06.290Z,22.4
2023-01-09T02:28:08.495Z,22.4
2023-01-09T02:29:10.701Z,22.4
2023-01-09T02:30:13.211Z,22.4
2023-01-09T02:31:15.636Z,22.4
2023-01-09T02:32:18.312Z,22.4
2023-01-09T02:33:20.535Z,22.4
2023-01-09T02:34:23.145Z,22.4
2023-01-09T02:35:25.661Z,22.4
2023-01-09T02:36:28.210Z,22.4
2023-01-09T02:37:30.698Z,22.4
2023-01-09T02:38:32.925Z,22.4
2023-01-09T02:39:35.256Z,22.4
2023-01-09T02:40:37.815Z,22.4
2023-01-09T02:41:40.383Z,22.4
2023-01-09T02:42:42.918Z,22.4
2023-01-09T02:43:45.188Z,22.4
2023-01-09T02:44:47.405Z,22.5
2023-01-09T02:45:49.817Z,22.5
2023-01-09T02:46:52.478Z,22.5
2023-01-09T02:47:54.423Z,22.5
2023-01-09T02:48:56.925Z,22.5
2023-01-09T02:49:59.417Z,22.5
2023-01-09T02:51:01.656Z,22.5
2023-01-09T02:52:04.216Z,22.5
2023-01-09T02:53:06.201Z,22.4
2023-01-09T02:54:08.724Z,22.4
2023-01-09T02:55:11.269Z,22.4
2023-01-09T02:56:13.919Z,22.4
2023-01-09T02:57:16.453Z,22.4
2023-01-09T02:58:18.966Z,22.4
2023-01-09T02:59:21.478Z,22.4
2023-01-09T03:00:24.004Z,22.4
2023-01-09T03:01:26.810Z,22.4
2023-01-09T03:02:29.675Z,22.4
2023-01-09T03:03:32.206Z,22.4
2023-01-09T03:04:34.461Z,22.4
2023-01-09T03:05:37.004Z,22.4
2023-01-09T03:06:39.237Z,22.4
2023-01-09T03:07:41.479Z,22.4
2023-01-09T03:08:43.710Z,22.5
2023-01-09T03:09:45.939Z,22.5
2023-01-09T03:10:47.902Z,22.5
2023-01-09T03:11:50.469Z,22.5
2023-01-09T03:12:52.993Z,22.5
2023-01-09T03:13:55.498Z,22.5
2023-01-09T03:14:58.006Z,22.5
2023-01-09T03:16:00.716Z,22.5
2023-01-09T03:17:03.359Z,22.5
2023-01-09T03:18:05.588Z,22.5
2023-01-09T03:19:08.107Z,22.5
2023-01-09T03:20:10.641Z,22.4
2023-01-09T03:21:13.126Z,22.4
2023-01-09T03:22:15.665Z,22.4
2023-01-09T03:23:18.222Z,22.4
2023-01-09T03:24:20.476Z,22.4
2023-01-09T03:25:22.979Z,22.4
2023-01-09T03:26:25.559Z,22.4
2023-01-09T03:27:27.871Z,22.4
2023-01-09T03:28:30.414Z,22.5
2023-01-09T03:29:32.925Z,22.5
2023-01-09T03:30:35.422Z,22.5
2023-01-09T03:31:37.980Z,22.5
2023-01-09T03:32:40.078Z,22.5
2023-01-09T03:33:42.296Z,22.5
2023-01-09T03:34:44.790Z,22.5
2023-01-09T03:35:47.316Z,22.5
2023-01-09T03:36:49.832Z,22.5
2023-01-09T03:37:51.788Z,22.5
2023-01-09T03:38:54.322Z,22.5
2023-01-09T03:39:56.839Z,22.5
2023-01-09T03:40:59.349Z,22.5
2023-01-09T03:42:01.594Z,22.5
2023-01-09T03:43:04.191Z,22.5
2023-01-09T03:44:06.730Z,22.5
2023-01-09T03:45:08.972Z,22.4
2023-01-09T03:46:11.736Z,22.4
2023-01-09T03:47:14.209Z,22.4
2023-01-09T03:48:16.174Z,22.4
2023-01-09T03:49:18.699Z,22.4
2023-01-09T03:50:20.777Z,22.4
2023-01-09T03:51:23.263Z,22.5
2023-01-09T03:52:25.755Z,22.5
2023-01-09T03:53:28.252Z,22.5
2023-01-09T03:54:30.790Z,22.5
2023-01-09T03:55:33.317Z,22.5
2023-01-09T03:56:35.857Z,22.5
2023-01-09T03:57:38.386Z,22.5
2023-01-09T03:58:40.971Z,22.5
2023-01-09T03:59:43.487Z,22.5
2023-01-09T04:00:46.244Z,22.5
2023-01-09T04:01:49.375Z,22.5
2023-01-09T04:02:52.423Z,22.6
2023-01-09T04:03:54.868Z,22.5
2023-01-09T04:04:57.202Z,22.5
2023-01-09T04:05:59.747Z,22.5
2023-01-09T04:07:02.009Z,22.5
2023-01-09T04:08:04.522Z,22.5
2023-01-09T04:09:06.742Z,22.5
2023-01-09T04:10:08.992Z,22.5
2023-01-09T04:11:11.563Z,22.5
2023-01-09T04:12:14.123Z,22.5
2023-01-09T04:13:16.376Z,22.5
2023-01-09T04:14:18.689Z,22.5
2023-01-09T04:15:21.205Z,22.5
2023-01-09T04:16:23.546Z,22.5
2023-01-09T04:17:26.248Z,22.4
2023-01-09T04:18:28.754Z,22.4
2023-01-09T04:19:31.648Z,22.4
2023-01-09T04:20:33.623Z,22.4
2023-01-09T04:21:35.845Z,22.4
2023-01-09T04:22:38.046Z,22.4
2023-01-09T04:23:40.683Z,22.4
2023-01-09T04:24:43.194Z,22.4
2023-01-09T04:25:45.453Z,22.4
2023-01-09T04:26:47.950Z,22.4
2023-01-09T04:27:50.423Z,22.4
2023-01-09T04:28:52.948Z,22.4
2023-01-09T04:29:55.507Z,22.4
2023-01-09T04:30:58.059Z,22.4
2023-01-09T04:32:00.582Z,22.4
2023-01-09T04:33:02.835Z,22.4
2023-01-09T04:34:05.409Z,22.4
2023-01-09T04:35:07.620Z,22.3
2023-01-09T04:36:10.125Z,22.3
2023-01-09T04:37:12.365Z,22.3
2023-01-09T04:38:14.896Z,22.3
2023-01-09T04:39:17.412Z,22.3
2023-01-09T04:40:19.065Z,22.3
2023-01-09T04:41:21.609Z,22.3
2023-01-09T04:42:23.871Z,22.3
2023-01-09T04:43:26.439Z,22.3
2023-01-09T04:44:28.979Z,22.3
2023-01-09T04:45:31.747Z,22.3
2023-01-09T04:46:34.477Z,22.3
2023-01-09T04:47:37.042Z,22.3
2023-01-09T04:48:39.545Z,22.3
2023-01-09T04:49:42.041Z,22.3
2023-01-09T04:50:44.020Z,22.3
2023-01-09T04:51:46.535Z,22.3
2023-01-09T04:52:49.070Z,22.3
2023-01-09T04:53:51.584Z,22.3
2023-01-09T04:54:53.583Z,22.3
2023-01-09T04:55:56.111Z,22.3
2023-01-09T04:56:58.637Z,22.3
2023-01-09T04:58:01.141Z,22.3
2023-01-09T04:59:03.647Z,22.3
2023-01-09T05:00:06.188Z,22.3
2023-01-09T05:01:09.110Z,22.3
2023-01-09T05:02:12.630Z,22.3
2023-01-09T05:03:15.474Z,22.3
2023-01-09T05:04:18.106Z,22.2
2023-01-09T05:05:20.916Z,22.2
2023-01-09T05:06:23.418Z,22.2
2023-01-09T05:07:25.760Z,22.2
2023-01-09T05:08:28.177Z,22.2
2023-01-09T05:09:30.734Z,22.2
2023-01-09T05:10:33.296Z,22.2
2023-01-09T05:11:35.812Z,22.2
2023-01-09T05:12:38.423Z,22.2
2023-01-09T05:13:41.143Z,22.2
2023-01-09T05:14:43.391Z,22.2
2023-01-09T05:15:45.393Z,22.2
2023-01-09T05:16:48.103Z,22.2
2023-01-09T05:17:50.544Z,22.2
2023-01-09T05:18:52.771Z,22.2
2023-01-09T05:19:55.046Z,22.2
2023-01-09T05:20:57.578Z,22.2
2023-01-09T05:21:59.834Z,22.2
2023-01-09T05:23:02.053Z,22.2
2023-01-09T05:24:04.278Z,22.2
2023-01-09T05:25:06.826Z,22.2
2023-01-09T05:26:09.341Z,22.2
2023-01-09T05:27:11.594Z,22.2
2023-01-09T05:28:14.135Z,22.2
2023-01-09T05:29:16.687Z,22.2
2023-01-09T05:30:19.627Z,22.2
2023-01-09T05:31:22.335Z,22.2
2023-01-09T05:32:24.932Z,22.2
2023-01-09T05:33:27.199Z,22.2
2023-01-09T05:34:29.453Z,22.2
2023-01-09T05:35:31.708Z,22.2
2023-01-09T05:36:33.976Z,22.2
2023-01-09T05:37:36.495Z,22.2
2023-01-09T05:38:38.739Z,22.2
2023-01-09T05:39:40.979Z,22.2
2023-01-09T05:40:42.954Z,22.2
2023-01-09T05:41:45.489Z,22.2
2023-01-09T05:42:47.699Z,22.2
2023-01-09T05:43:50.236Z,22.2
2023-01-09T05:44:52.774Z,22.2
2023-01-09T05:45:55.443Z,22.2
2023-01-09T05:46:58.105Z,22.2
2023-01-09T05:48:01.866Z,22.2
2023-01-09T05:49:04.448Z,22.1
2023-01-09T05:50:06.999Z,22.1
2023-01-09T05:51:09.540Z,22.1
2023-01-09T05:52:11.562Z,22.2
2023-01-09T05:53:14.022Z,22.1
2023-01-09T05:54:16.817Z,22.1
2023-01-09T05:55:19.370Z,22.1
2023-01-09T05:56:21.634Z,22.1
2023-01-09T05:57:24.169Z,22.1
2023-01-09T05:58:25.868Z,22.1
2023-01-09T05:59:28.382Z,22.1
2023-01-09T06:00:30.896Z,22.1
2023-01-09T06:01:33.735Z,22.1
2023-01-09T06:02:36.924Z,22.1
2023-01-09T06:03:40.049Z,22.1
2023-01-09T06:04:42.579Z,22.1
2023-01-09T06:05:45.114Z,22.1
2023-01-09T06:06:47.636Z,22.1
2023-01-09T06:07:50.158Z,22.1
2023-01-09T06:08:52.412Z,22.1
2023-01-09T06:09:54.644Z,22.1
2023-01-09T06:10:57.155Z,22.1
2023-01-09T06:11:59.654Z,22.1
2023-01-09T06:13:02.149Z,22.1
2023-01-09T06:14:04.415Z,22.1
2023-01-09T06:16:11.877Z,22.1
2023-01-09T06:17:14.655Z,22.1
2023-01-09T06:18:16.961Z,22.1
2023-01-09T06:19:19.541Z,22.1
2023-01-09T06:20:22.073Z,22.1
2023-01-09T06:21:24.329Z,22.1
2023-01-09T06:22:26.895Z,22.1
2023-01-09T06:23:28.861Z,22.1
2023-01-09T06:24:31.099Z,22.1
2023-01-09T06:25:33.333Z,22.1
2023-01-09T06:26:35.844Z,22.1
2023-01-09T06:27:38.082Z,22.1
2023-01-09T06:28:40.609Z,22.1
2023-01-09T06:29:48.232Z,22.1
2023-01-09T06:30:50.947Z,22.1
2023-01-09T06:31:53.021Z,22.1
2023-01-09T06:32:55.287Z,22.1
2023-01-09T06:33:57.540Z,22.1
2023-01-09T06:35:00.346Z,22.1
2023-01-09T06:36:03.030Z,22.1
2023-01-09T06:37:05.549Z,22.1
2023-01-09T06:38:08.051Z,22.1
2023-01-09T06:39:10.566Z,22.1
2023-01-09T06:40:12.825Z,22.1
2023-01-09T06:41:15.052Z,22.1
2023-01-09T06:42:17.598Z,22.1
2023-01-09T06:43:20.388Z,22.1
2023-01-09T06:44:23.092Z,22.1
2023-01-09T06:45:25.525Z,22
2023-01-09T06:46:28.052Z,22.1
2023-01-09T06:47:30.509Z,22.1
2023-01-09T06:48:33.060Z,22
2023-01-09T06:49:35.520Z,22.1
2023-01-09T06:50:38.149Z,22.1
2023-01-09T06:51:40.437Z,22.1
2023-01-09T06:52:42.975Z,22
2023-01-09T06:53:44.945Z,22.1
2023-01-09T06:54:47.199Z,22
2023-01-09T06:55:49.420Z,22.1
2023-01-09T06:56:51.946Z,22.1
2023-01-09T06:57:54.791Z,22.1
2023-01-09T06:58:57.327Z,22
2023-01-09T06:59:59.840Z,22
2023-01-09T07:01:02.948Z,22
2023-01-09T07:02:05.763Z,22
2023-01-09T07:03:08.262Z,22
2023-01-09T07:04:10.977Z,22.1
2023-01-09T07:05:13.178Z,22
2023-01-09T07:06:15.751Z,22
2023-01-09T07:07:18.346Z,22
2023-01-09T07:08:20.590Z,22
2023-01-09T07:09:23.116Z,22
2023-01-09T07:10:25.634Z,22
2023-01-09T07:11:27.872Z,22
2023-01-09T07:12:29.550Z,22
2023-01-09T07:13:31.788Z,22
2023-01-09T07:14:34.038Z,22
2023-01-09T07:15:36.324Z,22
2023-01-09T07:16:38.892Z,22
2023-01-09T07:17:41.137Z,22
2023-01-09T07:18:43.432Z,22
2023-01-09T07:19:45.988Z,22
2023-01-09T07:20:47.999Z,22
2023-01-09T07:21:50.575Z,22
2023-01-09T07:22:53.316Z,22
2023-01-09T07:23:55.831Z,22
2023-01-09T07:24:58.136Z,22
2023-01-09T07:26:00.705Z,22
2023-01-09T07:27:03.052Z,22
2023-01-09T07:28:05.671Z,22
2023-01-09T07:29:08.206Z,22
2023-01-09T07:30:10.731Z,22
2023-01-09T07:31:13.175Z,22
2023-01-09T07:32:15.831Z,22
2023-01-09T07:33:18.052Z,22
2023-01-09T07:34:20.340Z,22
2023-01-09T07:35:22.937Z,22
2023-01-09T07:36:24.980Z,22
2023-01-09T07:37:27.581Z,22
2023-01-09T07:38:30.155Z,22
2023-01-09T07:39:32.699Z,22
2023-01-09T07:40:34.993Z,22
2023-01-09T07:41:37.270Z,22
2023-01-09T07:42:39.794Z,22
2023-01-09T07:43:41.748Z,22
2023-01-09T07:44:44.308Z,22
2023-01-09T07:45:46.259Z,22
2023-01-09T07:46:48.777Z,22
2023-01-09T07:47:51.298Z,22
2023-01-09T07:48:53.516Z,22
2023-01-09T07:49:55.804Z,22
2023-01-09T07:50:58.331Z,22
2023-01-09T07:52:00.888Z,22
2023-01-09T07:53:03.555Z,22
2023-01-09T07:54:06.134Z,22
2023-01-09T07:55:08.385Z,22
2023-01-09T07:56:10.611Z,22
2023-01-09T07:57:13.265Z,22
2023-01-09T07:58:15.790Z,22
2023-01-09T07:59:18.338Z,22
2023-01-09T08:00:20.921Z,22
2023-01-09T08:01:23.829Z,22
2023-01-09T08:02:26.531Z,22
2023-01-09T08:03:29.265Z,22
2023-01-09T08:04:31.819Z,22
2023-01-09T08:05:34.439Z,22
2023-01-09T08:06:37.040Z,22
2023-01-09T08:07:39.610Z,22
2023-01-09T08:08:41.962Z,22
2023-01-09T08:09:44.636Z,22
2023-01-09T08:10:47.295Z,22
2023-01-09T08:11:49.609Z,22
2023-01-09T08:12:52.168Z,22
2023-01-09T08:13:54.704Z,22
2023-01-09T08:14:57.018Z,22
2023-01-09T08:15:59.793Z,22
2023-01-09T08:17:02.395Z,22
2023-01-09T08:18:04.705Z,22
2023-01-09T08:19:07.287Z,22
2023-01-09T08:20:09.553Z,22
2023-01-09T08:21:12.121Z,22
2023-01-09T08:22:14.514Z,22
2023-01-09T08:23:17.210Z,22
2023-01-09T08:24:19.794Z,22
2023-01-09T08:25:22.085Z,22
2023-01-09T08:26:24.731Z,22
2023-01-09T08:27:26.989Z,22
2023-01-09T08:28:29.335Z,22
2023-01-09T08:29:31.858Z,22
2023-01-09T08:30:34.130Z,22
2023-01-09T08:31:36.562Z,22
2023-01-09T08:32:39.321Z,22
2023-01-09T08:33:41.728Z,22
2023-01-09T08:34:44.155Z,22
2023-01-09T08:35:46.945Z,22
2023-01-09T08:36:49.686Z,22
2023-01-09T08:37:52.229Z,22
2023-01-09T08:38:54.896Z,22
2023-01-09T08:39:57.490Z,22
2023-01-09T08:40:59.880Z,22
2023-01-09T08:42:02.448Z,22
2023-01-09T08:43:04.391Z,22
2023-01-09T08:44:06.906Z,22
2023-01-09T08:45:08.878Z,22
2023-01-09T08:46:11.266Z,22
2023-01-09T08:47:13.171Z,22
2023-01-09T08:48:15.729Z,22
2023-01-09T08:49:18.240Z,22
2023-01-09T08:50:20.477Z,22
2023-01-09T08:51:22.995Z,22
2023-01-09T08:52:25.541Z,22
2023-01-09T08:53:27.786Z,22
2023-01-09T08:55:34.839Z,22
2023-01-09T08:56:37.452Z,22
2023-01-09T08:57:39.960Z,22
2023-01-09T08:58:42.232Z,22
2023-01-09T08:59:44.748Z,22
2023-01-09T09:00:47.299Z,22
2023-01-09T09:01:50.259Z,22
2023-01-09T09:02:52.824Z,22
2023-01-09T09:03:55.015Z,22
2023-01-09T09:04:57.036Z,22
2023-01-09T09:05:59.561Z,22
2023-01-09T09:07:01.722Z,22
2023-01-09T09:08:04.249Z,22
2023-01-09T09:09:06.748Z,22
2023-01-09T09:10:09.302Z,22
2023-01-09T09:11:11.592Z,22
2023-01-09T09:12:14.224Z,22
2023-01-09T09:13:16.464Z,22
2023-01-09T09:14:18.988Z,22
2023-01-09T09:15:21.531Z,22
2023-01-09T09:16:24.182Z,22
2023-01-09T09:17:26.500Z,22
2023-01-09T09:18:29.029Z,22
2023-01-09T09:19:31.550Z,22
2023-01-09T09:20:33.243Z,22
2023-01-09T09:21:35.524Z,22
2023-01-09T09:22:37.754Z,22
2023-01-09T09:23:40.559Z,22
2023-01-09T09:24:42.261Z,22
2023-01-09T09:25:44.553Z,22
2023-01-09T09:26:46.826Z,22
2023-01-09T09:27:49.472Z,22
2023-01-09T09:28:52.016Z,22
2023-01-09T09:29:54.524Z,22
2023-01-09T09:30:56.633Z,22
2023-01-09T09:33:03.697Z,22
2023-01-09T09:34:06.010Z,22
2023-01-09T09:35:08.271Z,22
2023-01-09T09:36:10.578Z,22
2023-01-09T09:37:13.385Z,22
2023-01-09T09:38:15.769Z,22
2023-01-09T09:39:17.819Z,22
2023-01-09T09:40:20.397Z,22
2023-01-09T09:41:22.077Z,22
2023-01-09T09:42:24.079Z,22
2023-01-09T09:43:26.745Z,22
2023-01-09T09:44:29.015Z,22
2023-01-09T09:45:31.540Z,22
2023-01-09T09:46:34.005Z,22
2023-01-09T09:47:36.449Z,22
2023-01-09T09:48:38.713Z,22
2023-01-09T09:49:40.712Z,22
2023-01-09T09:50:43.235Z,22
2023-01-09T09:51:45.769Z,22
2023-01-09T09:52:48.250Z,22
2023-01-09T09:53:50.775Z,22
2023-01-09T09:54:53.338Z,22
2023-01-09T09:55:55.650Z,22
2023-01-09T09:56:57.910Z,22
2023-01-09T09:58:00.452Z,22
2023-01-09T09:59:03.061Z,22
2023-01-09T10:00:05.051Z,22
2023-01-09T10:01:07.323Z,22
2023-01-09T10:02:09.529Z,22
2023-01-09T10:03:11.999Z,22
2023-01-09T10:04:18.737Z,22
2023-01-09T10:05:21.299Z,22
2023-01-09T10:06:23.958Z,22
2023-01-09T10:07:26.507Z,22
2023-01-09T10:08:29.033Z,22
2023-01-09T10:09:31.576Z,22
2023-01-09T10:10:33.575Z,22
2023-01-09T10:11:36.132Z,22
2023-01-09T10:12:38.737Z,22
2023-01-09T10:13:41.301Z,22
2023-01-09T10:14:43.821Z,22
2023-01-09T10:15:45.619Z,21.9
2023-01-09T10:16:48.243Z,21.9
2023-01-09T10:17:49.915Z,21.9
2023-01-09T10:18:52.448Z,21.9
2023-01-09T10:19:54.430Z,21.9
2023-01-09T10:20:56.698Z,21.9
2023-01-09T10:21:58.690Z,21.9
2023-01-09T10:23:00.952Z,21.9
2023-01-09T10:24:03.515Z,21.9
2023-01-09T10:25:05.761Z,21.9
2023-01-09T10:26:08.525Z,21.9
2023-01-09T10:27:10.797Z,21.9
2023-01-09T10:28:13.343Z,21.9
2023-01-09T10:29:15.913Z,21.9
2023-01-09T10:30:18.539Z,21.9
2023-01-09T10:31:21.000Z,21.9
2023-01-09T10:32:23.718Z,21.9
2023-01-09T10:33:26.265Z,21.9
2023-01-09T10:34:28.553Z,21.9
2023-01-09T10:36:36.236Z,21.9
2023-01-09T10:37:38.921Z,21.9
2023-01-09T10:38:41.177Z,21.9
2023-01-09T10:39:43.484Z,21.9
2023-01-09T10:40:46.064Z,21.9
2023-01-09T10:41:47.810Z,21.9
2023-01-09T10:42:50.407Z,21.9
2023-01-09T10:43:52.694Z,21.9
2023-01-09T10:44:55.396Z,21.9
2023-01-09T10:45:58.016Z,21.9
2023-01-09T10:47:00.218Z,21.9
2023-01-09T10:48:02.718Z,21.9
2023-01-09T10:49:05.230Z,21.9
2023-01-09T10:50:07.752Z,21.9
2023-01-09T10:51:10.017Z,21.9
2023-01-09T10:52:15.737Z,21.9
2023-01-09T10:53:18.183Z,21.9
2023-01-09T10:54:20.727Z,21.9
2023-01-09T10:55:22.978Z,21.9
2023-01-09T10:56:25.041Z,21.9
2023-01-09T10:57:27.599Z,21.9
2023-01-09T10:58:29.838Z,21.9
2023-01-09T10:59:32.159Z,21.9
2023-01-09T11:00:34.205Z,21.9
2023-01-09T11:01:36.844Z,21.9
2023-01-09T11:02:39.731Z,21.9
2023-01-09T11:03:42.643Z,21.9
2023-01-09T11:04:44.988Z,21.9
2023-01-09T11:05:47.229Z,21.9
2023-01-09T11:06:49.483Z,21.9
2023-01-09T11:07:52.053Z,21.9
2023-01-09T11:08:54.567Z,21.9
2023-01-09T11:09:56.825Z,21.9
2023-01-09T11:10:59.103Z,21.9
2023-01-09T11:12:01.657Z,21.9
2023-01-09T11:13:03.894Z,21.9
2023-01-09T11:14:06.444Z,21.9
2023-01-09T11:15:09.129Z,21.9
2023-01-09T11:16:12.085Z,21.9
2023-01-09T11:17:14.918Z,21.9
2023-01-09T11:18:17.219Z,21.9
2023-01-09T11:19:19.500Z,21.9
2023-01-09T11:20:21.444Z,21.9
2023-01-09T11:21:23.718Z,21.9
2023-01-09T11:22:26.224Z,21.9
2023-01-09T11:23:28.756Z,21.9
2023-01-09T11:24:31.041Z,21.9
2023-01-09T11:25:33.307Z,21.9
2023-01-09T11:26:35.821Z,21.9
2023-01-09T11:27:37.759Z,21.9
2023-01-09T11:28:40.352Z,21.9
2023-01-09T11:29:42.933Z,21.9
2023-01-09T11:30:45.526Z,21.9
2023-01-09T11:31:48.359Z,21.9
2023-01-09T11:32:51.183Z,21.9
2023-01-09T11:33:53.724Z,21.9
2023-01-09T11:34:55.991Z,21.9
2023-01-09T11:35:58.257Z,21.9
2023-01-09T11:37:00.986Z,21.9
2023-01-09T11:38:03.761Z,21.9
2023-01-09T11:39:05.995Z,21.9
2023-01-09T11:40:08.574Z,21.9
2023-01-09T11:41:10.548Z,21.9
2023-01-09T11:42:12.777Z,21.9
2023-01-09T11:43:15.036Z,21.9
2023-01-09T11:44:17.352Z,21.9
2023-01-09T11:45:19.936Z,21.9
2023-01-09T11:46:22.082Z,21.9
2023-01-09T11:47:24.858Z,21.9
2023-01-09T11:48:27.515Z,21.9
2023-01-09T11:49:30.076Z,21.9
2023-01-09T11:50:32.632Z,21.9
2023-01-09T11:51:34.907Z,21.9
2023-01-09T11:52:37.140Z,21.9
2023-01-09T11:53:39.513Z,21.9
2023-01-09T11:54:41.482Z,21.9
2023-01-09T11:55:44.333Z,21.9
2023-01-09T11:56:46.877Z,21.9
2023-01-09T11:57:49.142Z,21.9
2023-01-09T11:58:51.130Z,21.9
2023-01-09T11:59:53.507Z,21.9
2023-01-09T12:00:56.038Z,21.9
2023-01-09T12:01:58.558Z,21.9
2023-01-09T12:03:01.092Z,21.9
2023-01-09T12:04:03.862Z,21.9
2023-01-09T12:05:06.382Z,21.9
2023-01-09T12:06:08.915Z,21.9
2023-01-09T12:07:11.156Z,21.9
2023-01-09T12:08:13.427Z,21.9
2023-01-09T12:09:15.970Z,21.9
2023-01-09T12:10:18.487Z,21.9
2023-01-09T12:11:20.753Z,21.9
2023-01-09T12:12:23.311Z,21.9
2023-01-09T12:13:25.567Z,21.9
2023-01-09T12:14:28.102Z,21.9
2023-01-09T12:15:30.652Z,21.9
2023-01-09T12:16:33.182Z,21.9
2023-01-09T12:17:35.931Z,21.9
2023-01-09T12:18:38.478Z,21.9
2023-01-09T12:19:43.042Z,21.9
2023-01-09T12:20:45.274Z,21.9
2023-01-09T12:21:47.827Z,21.9
2023-01-09T12:22:50.084Z,21.9
2023-01-09T12:23:52.609Z,21.9
2023-01-09T12:24:55.155Z,21.9
2023-01-09T12:25:57.152Z,21.9
2023-01-09T12:26:59.127Z,21.9
2023-01-09T12:28:01.410Z,21.9
2023-01-09T12:29:03.945Z,21.9
2023-01-09T12:30:06.221Z,21.9
2023-01-09T12:31:08.500Z,21.9
2023-01-09T12:32:11.088Z,21.9
2023-01-09T12:33:13.365Z,21.9
2023-01-09T12:34:15.615Z,21.9
2023-01-09T12:35:18.244Z,21.9
2023-01-09T12:36:20.491Z,21.9
2023-01-09T12:37:22.735Z,21.9
2023-01-09T12:38:25.570Z,21.9
2023-01-09T12:39:27.647Z,21.9
2023-01-09T12:40:30.218Z,21.9
2023-01-09T12:41:32.736Z,21.9
2023-01-09T12:42:35.002Z,21.9
2023-01-09T12:43:37.303Z,21.9
2023-01-09T12:44:39.547Z,21.9
2023-01-09T12:45:42.284Z,21.9
2023-01-09T12:46:45.006Z,21.9
2023-01-09T12:47:47.631Z,21.9
2023-01-09T12:48:49.884Z,21.9
2023-01-09T12:49:52.142Z,21.9
2023-01-09T12:50:54.775Z,21.9
2023-01-09T12:51:57.040Z,21.9
2023-01-09T12:52:59.286Z,21.9
2023-01-09T12:54:01.829Z,21.9
2023-01-09T12:55:06.103Z,21.9
2023-01-09T12:56:08.435Z,21.9
2023-01-09T12:57:10.961Z,21.9
2023-01-09T12:58:12.917Z,21.9
2023-01-09T12:59:15.438Z,21.9
2023-01-09T13:00:17.686Z,21.9
2023-01-09T13:01:20.470Z,21.9
2023-01-09T13:02:23.324Z,21.9
2023-01-09T13:03:25.439Z,21.9
2023-01-09T13:04:27.659Z,21.9
2023-01-09T13:05:29.953Z,21.9
2023-01-09T13:06:32.618Z,21.9
2023-01-09T13:07:34.839Z,21.9
2023-01-09T13:08:36.791Z,21.9
2023-01-09T13:09:39.130Z,21.9
2023-01-09T13:10:41.729Z,21.9
2023-01-09T13:11:43.737Z,21.9
2023-01-09T13:12:46.279Z,21.9
2023-01-09T13:13:48.523Z,21.9
2023-01-09T13:14:50.789Z,21.9
2023-01-09T13:15:53.517Z,21.9
2023-01-09T13:16:56.206Z,21.9
2023-01-09T13:17:58.835Z,21.9
2023-01-09T13:19:01.130Z,21.9
2023-01-09T13:20:03.414Z,21.9
2023-01-09T13:21:05.791Z,21.9
2023-01-09T13:22:08.538Z,21.9
2023-01-09T13:23:10.791Z,21.9
2023-01-09T13:24:12.713Z,21.9
2023-01-09T13:25:14.702Z,21.9
2023-01-09T13:26:16.651Z,21.9
2023-01-09T13:27:18.618Z,21.9
2023-01-09T13:28:20.864Z,21.9
2023-01-09T13:29:22.877Z,21.9
2023-01-09T13:30:25.144Z,21.9
2023-01-09T13:31:27.809Z,21.9
2023-01-09T13:32:30.457Z,21.9
2023-01-09T13:33:33.035Z,21.9
2023-01-09T13:34:35.048Z,21.9
2023-01-09T13:35:37.094Z,21.9
2023-01-09T13:36:39.702Z,21.9
2023-01-09T13:37:42.736Z,21.9
2023-01-09T13:38:45.279Z,21.9
2023-01-09T13:39:47.087Z,21.9
2023-01-09T13:40:49.345Z,21.9
2023-01-09T13:41:51.939Z,21.9
2023-01-09T13:42:54.495Z,21.9
2023-01-09T13:43:57.067Z,21.9
2023-01-09T13:44:59.308Z,21.8
2023-01-09T13:46:01.823Z,21.8
2023-01-09T13:47:04.032Z,21.8
2023-01-09T13:48:06.384Z,21.8
2023-01-09T13:49:08.682Z,21.8
2023-01-09T13:50:10.940Z,21.8
2023-01-09T13:51:13.510Z,21.9
2023-01-09T13:52:16.089Z,21.9
2023-01-09T13:53:18.809Z,21.9
2023-01-09T13:54:21.088Z,21.9
2023-01-09T13:55:23.558Z,21.8
2023-01-09T13:56:26.108Z,21.9
2023-01-09T13:57:28.365Z,21.9
2023-01-09T13:58:30.905Z,21.8
2023-01-09T13:59:33.469Z,21.9
2023-01-09T14:00:36.113Z,21.9
2023-01-09T14:01:38.168Z,21.9
2023-01-09T14:02:40.198Z,21.9
2023-01-09T14:03:42.498Z,21.9
2023-01-09T14:04:44.781Z,21.9
2023-01-09T14:05:47.052Z,21.8
2023-01-09T14:06:49.573Z,21.8
2023-01-09T14:07:51.868Z,21.9
2023-01-09T14:08:54.466Z,21.8